sensor_id;sensor_type;location;lat;lon;timestamp;P1;durP1;ratioP1;P2;durP2;ratioP2
3249;SDS011;1637;42.020;23.992;2023-04-21T00:01:56;15.97;;;8.40;;
3249;SDS011;1637;42.020;23.992;2023-04-21T00:04:24;9.10;;;6.07;;
3249;SDS011;1637;42.020;23.992;2023-04-21T00:06:52;5.10;;;4.37;;
3249;SDS011;1637;42.020;23.992;2023-04-21T00:09:19;9.30;;;4.50;;
3249;SDS011;1637;42.020;23.992;2023-04-21T00:11:47;5.07;;;3.17;;
3249;SDS011;1637;42.020;23.992;2023-04-21T00:14:14;3.80;;;3.07;;
3249;SDS011;1637;42.020;23.992;2023-04-21T00:16:41;5.53;;;4.33;;
3249;SDS011;1637;42.020;23.992;2023-04-21T00:19:08;4.97;;;3.50;;
3249;SDS011;1637;42.020;23.992;2023-04-21T00:21:38;9.67;;;3.50;;
3249;SDS011;1637;42.020;23.992;2023-04-21T00:24:05;3.93;;;2.93;;
3249;SDS011;1637;42.020;23.992;2023-04-21T00:26:32;5.23;;;3.90;;
3249;SDS011;1637;42.020;23.992;2023-04-21T00:29:00;5.93;;;3.70;;
3249;SDS011;1637;42.020;23.992;2023-04-21T00:31:28;9.50;;;3.67;;
3249;SDS011;1637;42.020;23.992;2023-04-21T00:33:54;5.60;;;4.80;;
3249;SDS011;1637;42.020;23.992;2023-04-21T00:36:21;5.93;;;3.27;;
3249;SDS011;1637;42.020;23.992;2023-04-21T00:38:48;4.87;;;3.37;;
3249;SDS011;1637;42.020;23.992;2023-04-21T00:41:15;2.67;;;2.20;;
3249;SDS011;1637;42.020;23.992;2023-04-21T00:46:28;2.83;;;2.40;;
3249;SDS011;1637;42.020;23.992;2023-04-21T00:48:55;5.40;;;4.30;;
3249;SDS011;1637;42.020;23.992;2023-04-21T00:51:22;7.70;;;3.87;;
3249;SDS011;1637;42.020;23.992;2023-04-21T00:53:50;6.47;;;3.07;;
3249;SDS011;1637;42.020;23.992;2023-04-21T00:56:17;4.23;;;2.83;;
3249;SDS011;1637;42.020;23.992;2023-04-21T00:58:45;5.53;;;3.70;;
3249;SDS011;1637;42.020;23.992;2023-04-21T01:01:15;8.60;;;4.60;;
3249;SDS011;1637;42.020;23.992;2023-04-21T01:03:42;8.10;;;4.23;;
3249;SDS011;1637;42.020;23.992;2023-04-21T01:06:10;6.23;;;3.97;;
3249;SDS011;1637;42.020;23.992;2023-04-21T01:08:37;6.17;;;3.97;;
3249;SDS011;1637;42.020;23.992;2023-04-21T01:11:08;7.10;;;4.07;;
3249;SDS011;1637;42.020;23.992;2023-04-21T01:13:36;7.50;;;4.10;;
3249;SDS011;1637;42.020;23.992;2023-04-21T01:16:03;5.60;;;4.13;;
3249;SDS011;1637;42.020;23.992;2023-04-21T01:21:00;8.77;;;5.13;;
3249;SDS011;1637;42.020;23.992;2023-04-21T01:23:29;6.37;;;4.53;;
3249;SDS011;1637;42.020;23.992;2023-04-21T01:25:56;7.83;;;4.90;;
3249;SDS011;1637;42.020;23.992;2023-04-21T01:28:23;8.20;;;5.87;;
3249;SDS011;1637;42.020;23.992;2023-04-21T01:30:51;12.00;;;6.13;;
3249;SDS011;1637;42.020;23.992;2023-04-21T01:33:18;8.80;;;4.80;;
3249;SDS011;1637;42.020;23.992;2023-04-21T01:35:46;19.17;;;10.40;;
3249;SDS011;1637;42.020;23.992;2023-04-21T01:38:14;15.60;;;7.27;;
3249;SDS011;1637;42.020;23.992;2023-04-21T01:40:44;10.73;;;5.57;;
3249;SDS011;1637;42.020;23.992;2023-04-21T01:43:13;8.97;;;5.50;;
3249;SDS011;1637;42.020;23.992;2023-04-21T01:45:41;6.07;;;4.93;;
3249;SDS011;1637;42.020;23.992;2023-04-21T01:48:07;10.20;;;5.70;;
3249;SDS011;1637;42.020;23.992;2023-04-21T01:50:34;7.17;;;5.00;;
3249;SDS011;1637;42.020;23.992;2023-04-21T01:53:01;7.77;;;5.10;;
3249;SDS011;1637;42.020;23.992;2023-04-21T01:55:28;12.77;;;7.90;;
3249;SDS011;1637;42.020;23.992;2023-04-21T01:57:56;17.70;;;8.00;;
3249;SDS011;1637;42.020;23.992;2023-04-21T02:00:23;14.70;;;6.73;;
3249;SDS011;1637;42.020;23.992;2023-04-21T02:02:50;7.43;;;5.60;;
3249;SDS011;1637;42.020;23.992;2023-04-21T02:05:17;8.90;;;5.43;;
3249;SDS011;1637;42.020;23.992;2023-04-21T02:07:44;6.33;;;4.30;;
3249;SDS011;1637;42.020;23.992;2023-04-21T02:10:11;6.40;;;4.70;;
3249;SDS011;1637;42.020;23.992;2023-04-21T02:12:38;11.17;;;4.93;;
3249;SDS011;1637;42.020;23.992;2023-04-21T02:15:07;8.97;;;5.87;;
3249;SDS011;1637;42.020;23.992;2023-04-21T02:17:34;11.73;;;7.10;;
3249;SDS011;1637;42.020;23.992;2023-04-21T02:20:01;13.70;;;7.53;;
3249;SDS011;1637;42.020;23.992;2023-04-21T02:22:28;11.30;;;7.63;;
3249;SDS011;1637;42.020;23.992;2023-04-21T02:24:55;15.87;;;8.57;;
3249;SDS011;1637;42.020;23.992;2023-04-21T02:27:22;12.20;;;7.73;;
3249;SDS011;1637;42.020;23.992;2023-04-21T02:29:49;7.67;;;4.80;;
3249;SDS011;1637;42.020;23.992;2023-04-21T02:32:17;5.97;;;4.50;;
3249;SDS011;1637;42.020;23.992;2023-04-21T02:34:44;7.40;;;4.27;;
3249;SDS011;1637;42.020;23.992;2023-04-21T02:37:10;6.50;;;4.60;;
3249;SDS011;1637;42.020;23.992;2023-04-21T02:39:37;12.40;;;7.73;;
3249;SDS011;1637;42.020;23.992;2023-04-21T02:42:04;8.70;;;5.40;;
3249;SDS011;1637;42.020;23.992;2023-04-21T02:44:31;18.47;;;6.70;;
3249;SDS011;1637;42.020;23.992;2023-04-21T02:46:57;9.40;;;5.00;;
3249;SDS011;1637;42.020;23.992;2023-04-21T02:49:26;8.93;;;4.30;;
3249;SDS011;1637;42.020;23.992;2023-04-21T02:51:53;4.27;;;2.83;;
3249;SDS011;1637;42.020;23.992;2023-04-21T02:54:20;4.53;;;3.20;;
3249;SDS011;1637;42.020;23.992;2023-04-21T02:56:46;6.23;;;4.73;;
3249;SDS011;1637;42.020;23.992;2023-04-21T02:59:13;4.90;;;4.23;;
3249;SDS011;1637;42.020;23.992;2023-04-21T03:01:40;6.20;;;4.20;;
3249;SDS011;1637;42.020;23.992;2023-04-21T03:04:07;6.47;;;3.90;;
3249;SDS011;1637;42.020;23.992;2023-04-21T03:06:36;7.00;;;4.83;;
3249;SDS011;1637;42.020;23.992;2023-04-21T03:09:02;5.63;;;3.67;;
3249;SDS011;1637;42.020;23.992;2023-04-21T03:11:29;7.17;;;4.90;;
3249;SDS011;1637;42.020;23.992;2023-04-21T03:13:56;11.00;;;5.00;;
3249;SDS011;1637;42.020;23.992;2023-04-21T03:16:23;14.87;;;8.50;;
3249;SDS011;1637;42.020;23.992;2023-04-21T03:18:50;18.27;;;11.10;;
3249;SDS011;1637;42.020;23.992;2023-04-21T03:21:16;25.73;;;13.30;;
3249;SDS011;1637;42.020;23.992;2023-04-21T03:23:45;20.37;;;10.40;;
3249;SDS011;1637;42.020;23.992;2023-04-21T03:26:12;18.43;;;11.67;;
3249;SDS011;1637;42.020;23.992;2023-04-21T03:28:39;22.33;;;10.37;;
3249;SDS011;1637;42.020;23.992;2023-04-21T03:31:06;9.00;;;6.70;;
3249;SDS011;1637;42.020;23.992;2023-04-21T03:33:32;9.23;;;6.60;;
3249;SDS011;1637;42.020;23.992;2023-04-21T03:35:59;14.53;;;9.40;;
3249;SDS011;1637;42.020;23.992;2023-04-21T03:38:27;27.80;;;15.93;;
3249;SDS011;1637;42.020;23.992;2023-04-21T03:40:55;20.70;;;9.33;;
3249;SDS011;1637;42.020;23.992;2023-04-21T03:43:22;18.00;;;10.40;;
3249;SDS011;1637;42.020;23.992;2023-04-21T03:45:49;16.17;;;9.77;;
3249;SDS011;1637;42.020;23.992;2023-04-21T03:48:16;19.30;;;12.30;;
3249;SDS011;1637;42.020;23.992;2023-04-21T03:50:43;16.83;;;10.60;;
3249;SDS011;1637;42.020;23.992;2023-04-21T03:53:10;15.03;;;8.83;;
3249;SDS011;1637;42.020;23.992;2023-04-21T03:55:36;18.00;;;8.53;;
3249;SDS011;1637;42.020;23.992;2023-04-21T03:58:05;23.60;;;9.70;;
3249;SDS011;1637;42.020;23.992;2023-04-21T04:00:31;23.07;;;12.00;;
3249;SDS011;1637;42.020;23.992;2023-04-21T04:02:58;26.67;;;11.87;;
3249;SDS011;1637;42.020;23.992;2023-04-21T04:05:25;16.83;;;9.57;;
3249;SDS011;1637;42.020;23.992;2023-04-21T04:07:52;19.73;;;9.27;;
3249;SDS011;1637;42.020;23.992;2023-04-21T04:10:19;17.50;;;10.30;;
3249;SDS011;1637;42.020;23.992;2023-04-21T04:12:46;18.83;;;9.67;;
3249;SDS011;1637;42.020;23.992;2023-04-21T04:15:14;23.77;;;16.10;;
3249;SDS011;1637;42.020;23.992;2023-04-21T04:17:41;32.80;;;18.07;;
3249;SDS011;1637;42.020;23.992;2023-04-21T04:20:08;31.20;;;16.53;;
3249;SDS011;1637;42.020;23.992;2023-04-21T04:22:34;22.07;;;14.53;;
3249;SDS011;1637;42.020;23.992;2023-04-21T04:25:01;23.97;;;13.63;;
3249;SDS011;1637;42.020;23.992;2023-04-21T04:27:29;17.00;;;11.20;;
3249;SDS011;1637;42.020;23.992;2023-04-21T04:29:56;26.47;;;11.70;;
3249;SDS011;1637;42.020;23.992;2023-04-21T04:32:24;30.83;;;15.17;;
3249;SDS011;1637;42.020;23.992;2023-04-21T04:34:52;18.90;;;10.27;;
3249;SDS011;1637;42.020;23.992;2023-04-21T04:37:19;12.77;;;8.97;;
3249;SDS011;1637;42.020;23.992;2023-04-21T04:39:46;16.50;;;9.83;;
3249;SDS011;1637;42.020;23.992;2023-04-21T04:42:14;13.67;;;6.80;;
3249;SDS011;1637;42.020;23.992;2023-04-21T04:44:41;28.27;;;17.33;;
3249;SDS011;1637;42.020;23.992;2023-04-21T04:47:08;27.90;;;16.70;;
3249;SDS011;1637;42.020;23.992;2023-04-21T04:49:36;27.00;;;14.27;;
3249;SDS011;1637;42.020;23.992;2023-04-21T04:52:03;18.73;;;7.60;;
3249;SDS011;1637;42.020;23.992;2023-04-21T04:54:30;25.17;;;16.40;;
3249;SDS011;1637;42.020;23.992;2023-04-21T04:56:56;67.77;;;25.07;;
3249;SDS011;1637;42.020;23.992;2023-04-21T04:59:25;45.87;;;26.70;;
3249;SDS011;1637;42.020;23.992;2023-04-21T05:01:51;27.77;;;17.63;;
3249;SDS011;1637;42.020;23.992;2023-04-21T05:04:18;10.80;;;6.20;;
3249;SDS011;1637;42.020;23.992;2023-04-21T05:06:46;12.83;;;9.37;;
3249;SDS011;1637;42.020;23.992;2023-04-21T05:09:13;10.38;;;8.68;;
3249;SDS011;1637;42.020;23.992;2023-04-21T05:11:40;6.57;;;4.27;;
3249;SDS011;1637;42.020;23.992;2023-04-21T05:14:07;10.27;;;6.70;;
3249;SDS011;1637;42.020;23.992;2023-04-21T05:16:34;21.67;;;10.50;;
3249;SDS011;1637;42.020;23.992;2023-04-21T05:19:01;25.13;;;13.70;;
3249;SDS011;1637;42.020;23.992;2023-04-21T05:21:28;12.33;;;7.00;;
3249;SDS011;1637;42.020;23.992;2023-04-21T05:23:57;11.90;;;6.80;;
3249;SDS011;1637;42.020;23.992;2023-04-21T05:26:25;10.40;;;6.70;;
3249;SDS011;1637;42.020;23.992;2023-04-21T05:28:52;18.60;;;9.47;;
3249;SDS011;1637;42.020;23.992;2023-04-21T05:31:20;18.40;;;12.63;;
3249;SDS011;1637;42.020;23.992;2023-04-21T05:33:47;21.70;;;12.10;;
3249;SDS011;1637;42.020;23.992;2023-04-21T05:36:14;16.80;;;10.93;;
3249;SDS011;1637;42.020;23.992;2023-04-21T05:38:41;40.93;;;14.77;;
3249;SDS011;1637;42.020;23.992;2023-04-21T05:41:09;15.23;;;11.20;;
3249;SDS011;1637;42.020;23.992;2023-04-21T05:43:36;15.20;;;9.43;;
3249;SDS011;1637;42.020;23.992;2023-04-21T05:46:07;22.47;;;13.10;;
3249;SDS011;1637;42.020;23.992;2023-04-21T05:48:34;28.20;;;11.27;;
3249;SDS011;1637;42.020;23.992;2023-04-21T05:51:06;20.40;;;12.93;;
3249;SDS011;1637;42.020;23.992;2023-04-21T05:53:35;22.27;;;14.23;;
3249;SDS011;1637;42.020;23.992;2023-04-21T05:56:02;23.03;;;14.63;;
3249;SDS011;1637;42.020;23.992;2023-04-21T05:58:31;13.17;;;10.70;;
3249;SDS011;1637;42.020;23.992;2023-04-21T06:00:58;13.67;;;10.33;;
3249;SDS011;1637;42.020;23.992;2023-04-21T06:03:25;18.03;;;12.80;;
3249;SDS011;1637;42.020;23.992;2023-04-21T06:05:52;15.40;;;10.50;;
3249;SDS011;1637;42.020;23.992;2023-04-21T06:08:20;12.20;;;9.10;;
3249;SDS011;1637;42.020;23.992;2023-04-21T06:10:47;12.67;;;9.60;;
3249;SDS011;1637;42.020;23.992;2023-04-21T06:13:13;64.63;;;48.77;;
3249;SDS011;1637;42.020;23.992;2023-04-21T06:15:42;25.50;;;17.90;;
3249;SDS011;1637;42.020;23.992;2023-04-21T06:18:08;19.70;;;11.30;;
3249;SDS011;1637;42.020;23.992;2023-04-21T06:20:35;16.20;;;12.20;;
3249;SDS011;1637;42.020;23.992;2023-04-21T06:23:02;15.63;;;11.00;;
3249;SDS011;1637;42.020;23.992;2023-04-21T06:25:29;13.93;;;10.13;;
3249;SDS011;1637;42.020;23.992;2023-04-21T06:27:56;46.03;;;30.03;;
3249;SDS011;1637;42.020;23.992;2023-04-21T06:30:23;17.47;;;10.80;;
3249;SDS011;1637;42.020;23.992;2023-04-21T06:32:51;21.20;;;10.30;;
3249;SDS011;1637;42.020;23.992;2023-04-21T06:35:18;24.90;;;12.30;;
3249;SDS011;1637;42.020;23.992;2023-04-21T06:37:46;19.57;;;11.00;;
3249;SDS011;1637;42.020;23.992;2023-04-21T06:40:12;21.27;;;10.60;;
3249;SDS011;1637;42.020;23.992;2023-04-21T06:42:40;10.70;;;7.47;;
3249;SDS011;1637;42.020;23.992;2023-04-21T06:45:08;17.77;;;9.97;;
3249;SDS011;1637;42.020;23.992;2023-04-21T06:47:35;18.50;;;12.90;;
3249;SDS011;1637;42.020;23.992;2023-04-21T06:50:03;15.33;;;10.40;;
3249;SDS011;1637;42.020;23.992;2023-04-21T06:52:31;9.50;;;6.87;;
3249;SDS011;1637;42.020;23.992;2023-04-21T06:54:58;10.30;;;6.90;;
3249;SDS011;1637;42.020;23.992;2023-04-21T06:57:25;12.10;;;7.20;;
3249;SDS011;1637;42.020;23.992;2023-04-21T06:59:52;8.20;;;6.20;;
3249;SDS011;1637;42.020;23.992;2023-04-21T07:02:18;14.03;;;6.37;;
3249;SDS011;1637;42.020;23.992;2023-04-21T07:04:45;16.10;;;7.30;;
3249;SDS011;1637;42.020;23.992;2023-04-21T07:07:13;11.43;;;6.40;;
3249;SDS011;1637;42.020;23.992;2023-04-21T07:09:40;8.63;;;5.80;;
3249;SDS011;1637;42.020;23.992;2023-04-21T07:12:07;13.50;;;7.50;;
3249;SDS011;1637;42.020;23.992;2023-04-21T07:14:33;7.87;;;4.87;;
3249;SDS011;1637;42.020;23.992;2023-04-21T07:17:00;24.20;;;15.50;;
3249;SDS011;1637;42.020;23.992;2023-04-21T07:19:27;7.60;;;4.70;;
3249;SDS011;1637;42.020;23.992;2023-04-21T07:21:54;6.40;;;4.13;;
3249;SDS011;1637;42.020;23.992;2023-04-21T07:24:22;7.53;;;4.83;;
3249;SDS011;1637;42.020;23.992;2023-04-21T07:26:49;6.90;;;5.00;;
3249;SDS011;1637;42.020;23.992;2023-04-21T07:29:15;4.50;;;3.20;;
3249;SDS011;1637;42.020;23.992;2023-04-21T07:31:42;7.90;;;4.20;;
3249;SDS011;1637;42.020;23.992;2023-04-21T07:34:11;6.63;;;4.10;;
3249;SDS011;1637;42.020;23.992;2023-04-21T07:36:37;5.00;;;4.07;;
3249;SDS011;1637;42.020;23.992;2023-04-21T07:39:04;5.20;;;3.90;;
3249;SDS011;1637;42.020;23.992;2023-04-21T07:41:33;3.90;;;2.83;;
3249;SDS011;1637;42.020;23.992;2023-04-21T07:43:59;5.23;;;4.57;;
3249;SDS011;1637;42.020;23.992;2023-04-21T07:46:26;4.83;;;3.40;;
3249;SDS011;1637;42.020;23.992;2023-04-21T07:48:56;6.10;;;3.47;;
3249;SDS011;1637;42.020;23.992;2023-04-21T07:51:23;14.53;;;5.03;;
3249;SDS011;1637;42.020;23.992;2023-04-21T07:53:51;3.50;;;3.03;;
3249;SDS011;1637;42.020;23.992;2023-04-21T07:56:18;6.03;;;3.73;;
3249;SDS011;1637;42.020;23.992;2023-04-21T07:58:46;3.80;;;3.27;;
3249;SDS011;1637;42.020;23.992;2023-04-21T08:01:13;4.53;;;3.87;;
3249;SDS011;1637;42.020;23.992;2023-04-21T08:03:40;3.33;;;3.03;;
3249;SDS011;1637;42.020;23.992;2023-04-21T08:06:07;8.93;;;3.73;;
3249;SDS011;1637;42.020;23.992;2023-04-21T08:08:34;3.07;;;2.87;;
3249;SDS011;1637;42.020;23.992;2023-04-21T08:11:00;3.23;;;2.97;;
3249;SDS011;1637;42.020;23.992;2023-04-21T08:13:27;4.03;;;2.93;;
3249;SDS011;1637;42.020;23.992;2023-04-21T08:15:56;3.50;;;3.03;;
3249;SDS011;1637;42.020;23.992;2023-04-21T08:18:22;4.67;;;3.20;;
3249;SDS011;1637;42.020;23.992;2023-04-21T08:20:49;2.83;;;2.60;;
3249;SDS011;1637;42.020;23.992;2023-04-21T08:23:16;3.00;;;2.80;;
3249;SDS011;1637;42.020;23.992;2023-04-21T08:25:43;2.77;;;2.57;;
3249;SDS011;1637;42.020;23.992;2023-04-21T08:28:10;5.37;;;4.53;;
3249;SDS011;1637;42.020;23.992;2023-04-21T08:30:38;3.73;;;3.27;;
3249;SDS011;1637;42.020;23.992;2023-04-21T08:33:06;4.57;;;3.00;;
3249;SDS011;1637;42.020;23.992;2023-04-21T08:35:37;10.80;;;4.83;;
3249;SDS011;1637;42.020;23.992;2023-04-21T08:38:05;3.30;;;3.00;;
3249;SDS011;1637;42.020;23.992;2023-04-21T08:40:33;5.50;;;3.30;;
3249;SDS011;1637;42.020;23.992;2023-04-21T08:43:02;4.30;;;3.37;;
3249;SDS011;1637;42.020;23.992;2023-04-21T08:45:29;10.17;;;3.30;;
3249;SDS011;1637;42.020;23.992;2023-04-21T08:47:58;6.87;;;3.00;;
3249;SDS011;1637;42.020;23.992;2023-04-21T08:50:27;3.30;;;3.00;;
3249;SDS011;1637;42.020;23.992;2023-04-21T08:52:55;3.30;;;3.00;;
3249;SDS011;1637;42.020;23.992;2023-04-21T08:55:24;7.63;;;3.13;;
3249;SDS011;1637;42.020;23.992;2023-04-21T08:57:52;2.93;;;2.60;;
3249;SDS011;1637;42.020;23.992;2023-04-21T09:00:19;4.97;;;2.80;;
3249;SDS011;1637;42.020;23.992;2023-04-21T09:02:52;7.90;;;6.43;;
3249;SDS011;1637;42.020;23.992;2023-04-21T09:05:21;18.80;;;14.67;;
3249;SDS011;1637;42.020;23.992;2023-04-21T09:07:50;5.63;;;3.60;;
3249;SDS011;1637;42.020;23.992;2023-04-21T09:10:21;4.83;;;3.40;;
3249;SDS011;1637;42.020;23.992;2023-04-21T09:12:49;3.63;;;3.20;;
3249;SDS011;1637;42.020;23.992;2023-04-21T09:15:16;8.33;;;3.20;;
3249;SDS011;1637;42.020;23.992;2023-04-21T09:17:46;4.53;;;2.57;;
3249;SDS011;1637;42.020;23.992;2023-04-21T09:20:21;6.20;;;3.50;;
3249;SDS011;1637;42.020;23.992;2023-04-21T09:22:48;6.43;;;3.93;;
3249;SDS011;1637;42.020;23.992;2023-04-21T09:25:18;3.30;;;3.00;;
3249;SDS011;1637;42.020;23.992;2023-04-21T09:27:45;3.50;;;2.97;;
3249;SDS011;1637;42.020;23.992;2023-04-21T09:30:12;3.30;;;2.93;;
3249;SDS011;1637;42.020;23.992;2023-04-21T09:32:43;3.77;;;2.70;;
3249;SDS011;1637;42.020;23.992;2023-04-21T09:35:10;3.67;;;3.20;;
3249;SDS011;1637;42.020;23.992;2023-04-21T09:37:37;3.00;;;2.70;;
3249;SDS011;1637;42.020;23.992;2023-04-21T09:40:05;3.00;;;2.70;;
3249;SDS011;1637;42.020;23.992;2023-04-21T09:42:34;2.97;;;2.67;;
3249;SDS011;1637;42.020;23.992;2023-04-21T09:45:01;2.90;;;2.40;;
3249;SDS011;1637;42.020;23.992;2023-04-21T09:47:28;3.50;;;3.20;;
3249;SDS011;1637;42.020;23.992;2023-04-21T09:49:59;2.63;;;2.20;;
3249;SDS011;1637;42.020;23.992;2023-04-21T09:52:26;4.40;;;2.80;;
3249;SDS011;1637;42.020;23.992;2023-04-21T09:54:56;3.40;;;3.10;;
3249;SDS011;1637;42.020;23.992;2023-04-21T09:57:28;4.83;;;2.97;;
3249;SDS011;1637;42.020;23.992;2023-04-21T10:00:00;3.90;;;2.73;;
3249;SDS011;1637;42.020;23.992;2023-04-21T10:02:30;4.53;;;2.60;;
3249;SDS011;1637;42.020;23.992;2023-04-21T10:05:00;9.90;;;3.40;;
3249;SDS011;1637;42.020;23.992;2023-04-21T10:07:26;5.23;;;3.00;;
3249;SDS011;1637;42.020;23.992;2023-04-21T10:09:54;10.33;;;2.60;;
3249;SDS011;1637;42.020;23.992;2023-04-21T10:12:22;7.70;;;3.10;;
3249;SDS011;1637;42.020;23.992;2023-04-21T10:14:50;15.23;;;2.73;;
3249;SDS011;1637;42.020;23.992;2023-04-21T10:17:19;4.77;;;3.57;;
3249;SDS011;1637;42.020;23.992;2023-04-21T10:19:49;4.07;;;3.67;;
3249;SDS011;1637;42.020;23.992;2023-04-21T10:22:25;8.63;;;2.67;;
3249;SDS011;1637;42.020;23.992;2023-04-21T10:24:53;3.30;;;2.77;;
3249;SDS011;1637;42.020;23.992;2023-04-21T10:27:30;3.37;;;2.70;;
3249;SDS011;1637;42.020;23.992;2023-04-21T10:29:58;4.23;;;2.27;;
3249;SDS011;1637;42.020;23.992;2023-04-21T10:32:39;4.10;;;2.50;;
3249;SDS011;1637;42.020;23.992;2023-04-21T10:35:09;3.00;;;2.47;;
3249;SDS011;1637;42.020;23.992;2023-04-21T10:37:36;2.77;;;2.57;;
3249;SDS011;1637;42.020;23.992;2023-04-21T10:40:03;2.63;;;2.40;;
3249;SDS011;1637;42.020;23.992;2023-04-21T10:42:34;6.33;;;3.80;;
3249;SDS011;1637;42.020;23.992;2023-04-21T10:45:06;6.90;;;2.70;;
3249;SDS011;1637;42.020;23.992;2023-04-21T10:47:39;4.50;;;2.63;;
3249;SDS011;1637;42.020;23.992;2023-04-21T10:50:18;5.77;;;2.80;;
3249;SDS011;1637;42.020;23.992;2023-04-21T10:52:51;5.40;;;4.20;;
3249;SDS011;1637;42.020;23.992;2023-04-21T10:55:20;4.87;;;3.10;;
3249;SDS011;1637;42.020;23.992;2023-04-21T10:57:47;3.83;;;2.53;;
3249;SDS011;1637;42.020;23.992;2023-04-21T11:00:16;2.90;;;2.40;;
3249;SDS011;1637;42.020;23.992;2023-04-21T11:02:50;4.30;;;2.60;;
3249;SDS011;1637;42.020;23.992;2023-04-21T11:05:19;3.07;;;2.33;;
3249;SDS011;1637;42.020;23.992;2023-04-21T11:08:00;4.77;;;3.00;;
3249;SDS011;1637;42.020;23.992;2023-04-21T11:10:28;25.87;;;6.50;;
3249;SDS011;1637;42.020;23.992;2023-04-21T11:12:56;18.47;;;6.70;;
3249;SDS011;1637;42.020;23.992;2023-04-21T11:15:23;6.57;;;3.17;;
3249;SDS011;1637;42.020;23.992;2023-04-21T11:17:51;9.53;;;4.47;;
3249;SDS011;1637;42.020;23.992;2023-04-21T11:20:19;6.20;;;3.00;;
3249;SDS011;1637;42.020;23.992;2023-04-21T11:22:48;2.73;;;2.43;;
3249;SDS011;1637;42.020;23.992;2023-04-21T11:25:17;3.53;;;3.20;;
3249;SDS011;1637;42.020;23.992;2023-04-21T11:27:52;2.90;;;2.30;;
3249;SDS011;1637;42.020;23.992;2023-04-21T11:30:19;10.20;;;5.00;;
3249;SDS011;1637;42.020;23.992;2023-04-21T11:32:53;6.87;;;3.30;;
3249;SDS011;1637;42.020;23.992;2023-04-21T11:35:20;4.63;;;2.57;;
3249;SDS011;1637;42.020;23.992;2023-04-21T11:37:48;6.13;;;2.43;;
3249;SDS011;1637;42.020;23.992;2023-04-21T11:40:16;6.80;;;3.83;;
3249;SDS011;1637;42.020;23.992;2023-04-21T11:42:43;9.73;;;4.13;;
3249;SDS011;1637;42.020;23.992;2023-04-21T11:45:15;17.00;;;6.63;;
3249;SDS011;1637;42.020;23.992;2023-04-21T11:47:42;11.80;;;6.83;;
3249;SDS011;1637;42.020;23.992;2023-04-21T11:50:10;27.93;;;12.80;;
3249;SDS011;1637;42.020;23.992;2023-04-21T11:52:37;20.57;;;10.60;;
3249;SDS011;1637;42.020;23.992;2023-04-21T11:55:05;6.57;;;4.50;;
3249;SDS011;1637;42.020;23.992;2023-04-21T11:57:42;9.93;;;6.63;;
3249;SDS011;1637;42.020;23.992;2023-04-21T12:00:10;4.10;;;3.60;;
3249;SDS011;1637;42.020;23.992;2023-04-21T12:02:39;5.90;;;3.40;;
3249;SDS011;1637;42.020;23.992;2023-04-21T12:05:07;6.53;;;3.97;;
3249;SDS011;1637;42.020;23.992;2023-04-21T12:07:37;3.93;;;3.03;;
3249;SDS011;1637;42.020;23.992;2023-04-21T12:10:08;6.40;;;2.87;;
3249;SDS011;1637;42.020;23.992;2023-04-21T12:12:36;4.97;;;2.83;;
3249;SDS011;1637;42.020;23.992;2023-04-21T12:15:04;5.80;;;3.40;;
3249;SDS011;1637;42.020;23.992;2023-04-21T12:17:36;37.20;;;17.77;;
3249;SDS011;1637;42.020;23.992;2023-04-21T12:20:04;6.33;;;2.93;;
3249;SDS011;1637;42.020;23.992;2023-04-21T12:22:31;5.07;;;3.13;;
3249;SDS011;1637;42.020;23.992;2023-04-21T12:25:00;3.13;;;2.27;;
3249;SDS011;1637;42.020;23.992;2023-04-21T12:27:27;4.90;;;2.40;;
3249;SDS011;1637;42.020;23.992;2023-04-21T12:29:54;11.10;;;3.53;;
3249;SDS011;1637;42.020;23.992;2023-04-21T12:32:20;3.70;;;2.13;;
3249;SDS011;1637;42.020;23.992;2023-04-21T12:34:48;4.27;;;2.37;;
3249;SDS011;1637;42.020;23.992;2023-04-21T12:37:15;2.30;;;2.10;;
3249;SDS011;1637;42.020;23.992;2023-04-21T12:39:42;2.47;;;2.27;;
3249;SDS011;1637;42.020;23.992;2023-04-21T12:42:10;5.07;;;2.53;;
3249;SDS011;1637;42.020;23.992;2023-04-21T12:44:37;3.50;;;2.40;;
3249;SDS011;1637;42.020;23.992;2023-04-21T12:47:04;2.50;;;2.13;;
3249;SDS011;1637;42.020;23.992;2023-04-21T12:49:31;2.80;;;2.47;;
3249;SDS011;1637;42.020;23.992;2023-04-21T12:51:58;3.47;;;2.50;;
3249;SDS011;1637;42.020;23.992;2023-04-21T12:54:25;5.70;;;2.70;;
3249;SDS011;1637;42.020;23.992;2023-04-21T12:56:52;20.87;;;7.83;;
3249;SDS011;1637;42.020;23.992;2023-04-21T12:59:20;18.17;;;9.40;;
3249;SDS011;1637;42.020;23.992;2023-04-21T13:01:49;3.73;;;2.97;;
3249;SDS011;1637;42.020;23.992;2023-04-21T13:04:16;2.60;;;2.37;;
3249;SDS011;1637;42.020;23.992;2023-04-21T13:06:43;3.10;;;2.20;;
3249;SDS011;1637;42.020;23.992;2023-04-21T13:09:09;3.10;;;2.53;;
3249;SDS011;1637;42.020;23.992;2023-04-21T13:11:36;3.40;;;2.77;;
3249;SDS011;1637;42.020;23.992;2023-04-21T13:14:03;4.13;;;2.70;;
3249;SDS011;1637;42.020;23.992;2023-04-21T13:16:32;3.63;;;2.83;;
3249;SDS011;1637;42.020;23.992;2023-04-21T13:18:58;3.30;;;3.00;;
3249;SDS011;1637;42.020;23.992;2023-04-21T13:21:25;2.47;;;2.27;;
3249;SDS011;1637;42.020;23.992;2023-04-21T13:23:52;3.67;;;2.40;;
3249;SDS011;1637;42.020;23.992;2023-04-21T13:26:20;5.00;;;2.53;;
3249;SDS011;1637;42.020;23.992;2023-04-21T13:28:47;6.70;;;2.60;;
3249;SDS011;1637;42.020;23.992;2023-04-21T13:31:14;2.70;;;2.50;;
3249;SDS011;1637;42.020;23.992;2023-04-21T13:33:42;4.00;;;3.07;;
3249;SDS011;1637;42.020;23.992;2023-04-21T13:36:09;7.60;;;4.07;;
3249;SDS011;1637;42.020;23.992;2023-04-21T13:38:36;5.73;;;3.40;;
3249;SDS011;1637;42.020;23.992;2023-04-21T13:41:04;32.57;;;7.33;;
3249;SDS011;1637;42.020;23.992;2023-04-21T13:43:31;10.63;;;4.00;;
3249;SDS011;1637;42.020;23.992;2023-04-21T13:45:58;42.17;;;13.23;;
3249;SDS011;1637;42.020;23.992;2023-04-21T13:48:25;3.17;;;2.87;;
3249;SDS011;1637;42.020;23.992;2023-04-21T13:50:55;2.53;;;2.23;;
3249;SDS011;1637;42.020;23.992;2023-04-21T13:53:21;5.03;;;3.20;;
3249;SDS011;1637;42.020;23.992;2023-04-21T13:55:48;7.20;;;4.03;;
3249;SDS011;1637;42.020;23.992;2023-04-21T13:58:16;15.80;;;6.30;;
3249;SDS011;1637;42.020;23.992;2023-04-21T14:00:43;9.23;;;6.90;;
3249;SDS011;1637;42.020;23.992;2023-04-21T14:03:10;21.63;;;10.77;;
3249;SDS011;1637;42.020;23.992;2023-04-21T14:05:38;10.70;;;4.50;;
3249;SDS011;1637;42.020;23.992;2023-04-21T14:08:06;12.47;;;8.20;;
3249;SDS011;1637;42.020;23.992;2023-04-21T14:10:33;13.17;;;8.20;;
3249;SDS011;1637;42.020;23.992;2023-04-21T14:13:00;8.73;;;6.70;;
3249;SDS011;1637;42.020;23.992;2023-04-21T14:15:26;11.23;;;5.50;;
3249;SDS011;1637;42.020;23.992;2023-04-21T14:17:53;4.93;;;3.97;;
3249;SDS011;1637;42.020;23.992;2023-04-21T14:20:20;6.20;;;5.33;;
3249;SDS011;1637;42.020;23.992;2023-04-21T14:22:47;8.13;;;4.90;;
3249;SDS011;1637;42.020;23.992;2023-04-21T14:25:16;10.97;;;6.67;;
3249;SDS011;1637;42.020;23.992;2023-04-21T14:27:43;7.63;;;6.20;;
3249;SDS011;1637;42.020;23.992;2023-04-21T14:30:10;9.97;;;6.80;;
3249;SDS011;1637;42.020;23.992;2023-04-21T14:32:38;10.73;;;6.27;;
3249;SDS011;1637;42.020;23.992;2023-04-21T14:35:09;12.07;;;5.83;;
3249;SDS011;1637;42.020;23.992;2023-04-21T14:37:36;10.27;;;5.67;;
3249;SDS011;1637;42.020;23.992;2023-04-21T14:40:03;7.10;;;5.27;;
3249;SDS011;1637;42.020;23.992;2023-04-21T14:42:32;7.43;;;4.53;;
3249;SDS011;1637;42.020;23.992;2023-04-21T14:44:59;5.17;;;4.33;;
3249;SDS011;1637;42.020;23.992;2023-04-21T14:47:26;14.00;;;7.97;;
3249;SDS011;1637;42.020;23.992;2023-04-21T14:49:53;9.17;;;6.50;;
3249;SDS011;1637;42.020;23.992;2023-04-21T14:52:20;9.93;;;6.57;;
3249;SDS011;1637;42.020;23.992;2023-04-21T14:54:49;8.80;;;6.80;;
3249;SDS011;1637;42.020;23.992;2023-04-21T14:57:16;7.53;;;5.20;;
3249;SDS011;1637;42.020;23.992;2023-04-21T14:59:47;9.00;;;4.03;;
3249;SDS011;1637;42.020;23.992;2023-04-21T15:02:14;6.60;;;4.97;;